Time;durP1;ratioP1;P1;durP2;ratioP2;P2;SDS_P1;SDS_P2;PMS_P1;PMS_P2;Temp;Humidity;BMP_temperature;BMP_pressure;BME280_temperature;BME280_humidity;BME280_pressure;Samples;Min_cycle;Max_cycle;Signal;HPM_P1;HPM_P2
2023/03/22 00:02:00;;;;;;;4.17;3.47;;;;;;;10.34;94.86;154014.75;5006362;28;20444;-85
2023/03/22 00:04:27;;;;;;;4.07;3.63;;;;;;;10.31;93.97;154007.00;5031110;28;20534;-86
2023/03/22 00:06:54;;;;;;;4.23;3.83;;;;;;;10.27;93.79;153997.91;5021656;28;20474;-85
2023/03/22 00:09:21;;;;;;;4.73;3.90;;;;;;;10.29;94.97;154001.81;5038264;28;20463;-85
2023/03/22 00:11:49;;;;;;;5.20;4.70;;;;;;;10.28;95.76;153999.22;4993612;28;20912;-85
2023/03/22 00:14:17;;;;;;;5.13;4.63;;;;;;;10.26;95.30;153994.03;4993992;28;20940;-86
2023/03/22 00:16:44;;;;;;;5.73;5.20;;;;;;;10.31;96.47;154007.00;5004667;28;20450;-85
2023/03/22 00:19:12;;;;;;;6.10;5.47;;;;;;;10.27;95.39;153996.66;5007922;28;20472;-85
2023/03/22 00:21:39;;;;;;;6.43;5.43;;;;;;;10.25;95.47;153991.44;5013010;28;20542;-85
2023/03/22 00:24:07;;;;;;;7.63;6.87;;;;;;;10.28;96.68;154000.50;5029328;28;20439;-85
2023/03/22 00:26:33;;;;;;;6.37;5.80;;;;;;;10.27;96.72;153997.91;5029756;28;20486;-85
2023/03/22 00:29:00;;;;;;;5.87;5.37;;;;;;;10.25;95.87;153991.44;5026516;28;20527;-85
2023/03/22 00:31:27;;;;;;;5.50;5.00;;;;;;;10.25;96.52;153991.44;5040889;28;20443;-85
2023/03/22 00:33:54;;;;;;;5.57;4.90;;;;;;;10.28;97.78;153999.22;5030235;28;20507;-86
2023/03/22 00:36:22;;;;;;;6.27;5.50;;;;;;;10.28;97.81;153999.22;5002740;28;20440;-86
2023/03/22 00:38:51;;;;;;;6.23;5.63;;;;;;;10.24;96.60;153988.88;5043073;28;20470;-86
2023/03/22 00:41:19;;;;;;;6.40;5.70;;;;;;;10.23;97.69;153986.28;5042354;28;20803;-86
2023/03/22 00:43:46;;;;;;;5.20;4.70;;;;;;;10.22;97.71;153983.66;5016347;28;20435;-85
2023/03/22 00:46:14;;;;;;;5.87;5.27;;;;;;;10.16;97.05;153969.47;5036503;28;20431;-85
2023/03/22 00:48:41;;;;;;;6.13;5.53;;;;;;;10.15;97.45;153965.56;5029585;28;20475;-85
2023/03/22 00:51:09;;;;;;;5.90;5.30;;;;;;;10.13;97.34;153961.69;5017115;28;20463;-85
2023/03/22 00:53:38;;;;;;;5.70;5.20;;;;;;;10.12;98.01;153959.09;4995814;28;20440;-85
2023/03/22 00:56:06;;;;;;;5.67;5.00;;;;;;;10.09;97.05;153949.97;5002939;28;20539;-85
2023/03/22 00:58:43;;;;;;;5.50;5.00;;;;;;;10.08;97.30;153947.41;5019884;28;20444;-86
2023/03/22 01:01:12;;;;;;;6.83;5.10;;;;;;;10.07;97.36;153944.81;5033342;28;20444;-85
2023/03/22 01:03:39;;;;;;;5.83;5.23;;;;;;;10.05;97.99;153940.94;5035191;28;20440;-85
2023/03/22 01:06:07;;;;;;;6.23;5.63;;;;;;;10.02;98.28;153933.16;5002070;28;20444;-86
2023/03/22 01:08:37;;;;;;;6.33;5.30;;;;;;;9.97;97.25;153918.91;5016132;28;20898;-85
2023/03/22 01:11:06;;;;;;;5.83;4.90;;;;;;;9.91;96.60;153903.38;5033866;28;20483;-86
2023/03/22 01:13:36;;;;;;;5.83;5.23;;;;;;;9.90;97.59;153900.81;5016176;28;20487;-85
2023/03/22 01:16:03;;;;;;;6.43;5.43;;;;;;;9.86;97.09;153891.75;5015945;28;20444;-85
2023/03/22 01:18:29;;;;;;;5.53;5.00;;;;;;;9.82;97.35;153882.69;5039343;28;20459;-86
2023/03/22 01:20:56;;;;;;;6.83;5.33;;;;;;;9.78;97.65;153872.34;5019547;28;20534;-86
2023/03/22 01:23:23;;;;;;;5.77;5.07;;;;;;;9.72;97.72;153855.50;5034909;28;20447;-86
2023/03/22 01:25:50;;;;;;;5.93;5.33;;;;;;;9.71;99.17;153852.94;5013978;28;20476;-85
2023/03/22 01:28:18;;;;;;;5.93;5.33;;;;;;;9.67;98.81;153843.88;5011532;28;20468;-86
2023/03/22 01:30:45;;;;;;;5.20;4.57;;;;;;;9.63;98.75;153832.25;5033661;28;20854;-86
2023/03/22 01:33:11;;;;;;;5.80;5.20;;;;;;;9.60;98.80;153824.47;5015231;28;20475;-85
2023/03/22 01:35:39;;;;;;;5.83;5.00;;;;;;;9.54;98.22;153810.25;4999222;28;20448;-85
2023/03/22 01:38:07;;;;;;;5.63;5.00;;;;;;;9.49;97.35;153797.31;5013841;28;20451;-86
2023/03/22 01:40:39;;;;;;;5.17;4.20;;;;;;;9.48;98.33;153794.69;5013655;28;20843;-85
2023/03/22 01:43:11;;;;;;;5.47;4.47;;;;;;;9.41;97.72;153775.31;5008256;28;20451;-85
2023/03/22 01:45:44;;;;;;;4.50;4.03;;;;;;;9.37;97.91;153764.97;5030603;28;20522;-86
2023/03/22 01:48:16;;;;;;;4.80;4.30;;;;;;;9.36;99.05;153763.66;5018645;28;20468;-85
2023/03/22 01:50:47;;;;;;;5.43;4.73;;;;;;;9.33;99.58;153754.59;5028028;28;20853;-86
2023/03/22 01:53:17;;;;;;;5.17;4.67;;;;;;;9.28;98.94;153741.69;5007124;28;20859;-85
2023/03/22 01:55:45;;;;;;;5.10;4.17;;;;;;;9.23;98.35;153730.03;4981038;28;20451;-85
2023/03/22 01:58:17;;;;;;;4.90;4.50;;;;;;;9.20;98.59;153722.28;5004347;28;20777;-85
2023/03/22 02:00:56;;;;;;;4.23;3.80;;;;;;;9.15;98.81;153709.34;5003527;28;20512;-85
2023/03/22 02:03:49;;;;;;;5.00;4.57;;;;;;;9.12;99.98;153701.59;5013699;28;20451;-85
2023/03/22 02:06:16;;;;;;;5.13;4.63;;;;;;;9.08;99.90;153691.25;4984179;28;20859;-86
2023/03/22 02:08:43;;;;;;;4.30;3.90;;;;;;;9.06;100.00;153686.06;4998536;28;20466;-86
2023/03/22 02:11:18;;;;;;;5.13;4.20;;;;;;;9.02;99.78;153675.72;4998612;28;20994;-85
2023/03/22 02:13:58;;;;;;;5.00;4.00;;;;;;;8.98;100.00;153666.66;5015074;28;20436;-85
2023/03/22 02:16:53;;;;;;;4.33;3.93;;;;;;;8.89;99.87;153643.41;5003187;28;20445;-86
2023/03/22 02:19:44;;;;;;;5.13;4.50;;;;;;;8.86;100.00;153634.34;4998366;28;20440;-86
2023/03/22 02:22:40;;;;;;;5.47;4.30;;;;;;;8.83;100.00;153626.59;5013371;28;20452;-85
2023/03/22 02:25:59;;;;;;;5.13;4.10;;;;;;;8.79;100.00;153617.50;5014287;28;20513;-86
2023/03/22 02:28:33;;;;;;;4.33;3.93;;;;;;;8.80;100.00;153620.13;4948115;29;20507;-85
2023/03/22 02:31:16;;;;;;;4.80;4.30;;;;;;;8.78;100.00;153614.97;4945774;28;20529;-86
2023/03/22 02:34:07;;;;;;;5.03;4.10;;;;;;;8.77;100.00;153612.34;4984639;28;20474;-85
2023/03/22 02:36:48;;;;;;;5.40;3.80;;;;;;;8.74;100.00;153603.28;4975652;28;20445;-85
2023/03/22 02:39:23;;;;;;;4.83;4.20;;;;;;;8.71;100.00;153595.56;5009509;28;20532;-86
2023/03/22 02:41:59;;;;;;;5.00;4.50;;;;;;;8.71;100.00;153595.56;4997177;28;20510;-86
2023/03/22 02:44:29;;;;;;;5.40;4.90;;;;;;;8.68;100.00;153587.81;5014610;28;20448;-85
2023/03/22 02:47:01;;;;;;;4.70;4.30;;;;;;;8.67;100.00;153586.50;4983233;28;20457;-85
2023/03/22 02:49:33;;;;;;;5.13;4.63;;;;;;;8.64;100.00;153577.44;5006959;28;20485;-86
2023/03/22 02:52:01;;;;;;;5.10;4.47;;;;;;;8.62;100.00;153572.28;4994902;28;20846;-86
2023/03/22 02:54:35;;;;;;;5.47;4.60;;;;;;;8.62;100.00;153572.28;4984775;28;20442;-86
2023/03/22 02:57:08;;;;;;;6.00;4.70;;;;;;;8.58;100.00;153564.53;5006908;28;20441;-85
2023/03/22 02:59:37;;;;;;;4.90;4.40;;;;;;;8.53;100.00;153551.59;5014941;28;20977;-85
2023/03/22 03:02:06;;;;;;;5.90;4.23;;;;;;;8.52;100.00;153547.75;4996500;28;20529;-86
2023/03/22 03:04:36;;;;;;;5.90;5.23;;;;;;;8.45;100.00;153530.91;5018930;28;20935;-86
2023/03/22 03:07:08;;;;;;;5.73;5.23;;;;;;;8.48;100.00;153538.69;4987834;28;20480;-86
2023/03/22 03:09:36;;;;;;;4.43;4.03;;;;;;;8.45;100.00;153529.63;4992622;28;20516;-86
2023/03/22 03:12:09;;;;;;;5.50;4.97;;;;;;;8.41;100.00;153520.59;5023080;28;20540;-85
2023/03/22 03:14:36;;;;;;;6.10;5.40;;;;;;;8.39;100.00;153514.13;5013590;28;20498;-86
2023/03/22 03:17:22;;;;;;;7.80;4.90;;;;;;;8.41;100.00;153520.59;5010549;28;20737;-86
2023/03/22 03:19:58;;;;;;;6.03;4.57;;;;;;;8.39;100.00;153515.38;5010393;28;20740;-85
2023/03/22 03:22:34;;;;;;;6.87;4.50;;;;;;;8.40;100.00;153518.00;4996700;28;20961;-85
2023/03/22 03:25:09;;;;;;;5.67;5.17;;;;;;;8.42;100.00;153523.16;5010718;28;20535;-86
2023/03/22 03:27:39;;;;;;;5.17;4.67;;;;;;;8.40;100.00;153518.00;4988970;28;20571;-85
2023/03/22 03:30:11;;;;;;;6.47;4.90;;;;;;;8.40;100.00;153516.69;4996040;28;20777;-86
2023/03/22 03:32:42;;;;;;;6.47;4.87;;;;;;;8.38;100.00;153512.84;5015890;28;20476;-86
2023/03/22 03:35:16;;;;;;;5.87;5.27;;;;;;;8.40;100.00;153518.00;5010213;28;20547;-86
2023/03/22 03:37:47;;;;;;;5.63;5.03;;;;;;;8.44;100.00;153528.34;5030089;28;20447;-86
2023/03/22 03:40:18;;;;;;;6.00;5.37;;;;;;;8.46;100.00;153532.22;5006772;28;20530;-86
2023/03/22 03:42:48;;;;;;;5.30;4.80;;;;;;;8.45;100.00;153530.91;5002599;28;20483;-86
2023/03/22 03:45:16;;;;;;;5.43;4.93;;;;;;;8.50;100.00;153543.84;4997057;28;20432;-86
2023/03/22 03:47:43;;;;;;;4.83;4.33;;;;;;;8.46;100.00;153533.53;5031349;28;20571;-85
2023/03/22 03:50:11;;;;;;;4.43;4.00;;;;;;;8.49;100.00;153541.28;5013143;28;20428;-85
2023/03/22 03:52:38;;;;;;;4.50;3.77;;;;;;;8.46;100.00;153533.53;5021793;28;20447;-85
2023/03/22 03:55:06;;;;;;;6.50;4.10;;;;;;;8.52;100.00;153549.00;5027442;28;20923;-86
2023/03/22 03:57:36;;;;;;;5.13;4.33;;;;;;;8.56;100.00;153559.38;5025534;28;20456;-86
2023/03/22 04:00:04;;;;;;;5.30;4.80;;;;;;;8.54;100.00;153554.19;5025617;28;20436;-86
2023/03/22 04:03:03;;;;;;;4.23;3.67;;;;;;;8.54;100.00;153554.19;5034039;28;20836;-85
2023/03/22 04:05:56;;;;;;;4.77;4.10;;;;;;;8.54;100.00;153554.19;5019917;28;20440;-86
2023/03/22 04:08:23;;;;;;;4.20;3.60;;;;;;;8.53;100.00;153551.59;5054285;28;20482;-86
2023/03/22 04:10:50;;;;;;;4.47;4.07;;;;;;;8.53;100.00;153551.59;5053053;28;20837;-86
2023/03/22 04:13:20;;;;;;;4.00;3.60;;;;;;;8.53;100.00;153551.59;5048500;28;20455;-86
2023/03/22 04:15:52;;;;;;;4.40;3.27;;;;;;;8.54;100.00;153554.19;5014197;28;20868;-86
2023/03/22 04:18:20;;;;;;;5.30;3.73;;;;;;;8.52;100.00;153549.00;5050487;28;20436;-86
2023/03/22 04:20:48;;;;;;;4.47;4.07;;;;;;;8.53;100.00;153551.59;5033715;28;20448;-86
2023/03/22 04:23:15;;;;;;;4.40;4.00;;;;;;;8.47;100.00;153536.06;5020627;28;20479;-85
2023/03/22 04:25:49;;;;;;;4.67;3.80;;;;;;;8.46;100.00;153532.22;5016191;28;20544;-86
2023/03/22 04:28:22;;;;;;;4.63;3.80;;;;;;;8.39;100.00;153515.38;5005860;28;20821;-85
2023/03/22 04:30:51;;;;;;;4.60;3.50;;;;;;;8.38;100.00;153512.84;5025063;28;20543;-86
2023/03/22 04:33:38;;;;;;;4.30;3.40;;;;;;;8.35;100.00;153503.78;5041516;28;20471;-86
2023/03/22 04:36:16;;;;;;;5.53;3.53;;;;;;;8.27;100.00;153484.41;5020748;28;20435;-85
2023/03/22 04:39:08;;;;;;;7.40;4.67;;;;;;;8.27;100.00;153484.41;5035597;28;20783;-86
2023/03/22 04:41:35;;;;;;;5.47;4.17;;;;;;;8.22;100.00;153471.44;5022141;28;20451;-85
2023/03/22 04:44:04;;;;;;;5.87;3.70;;;;;;;8.20;100.00;153466.28;5033597;28;20993;-86
2023/03/22 04:46:35;;;;;;;8.33;4.67;;;;;;;8.24;100.00;153475.28;5033546;28;20946;-86
2023/03/22 04:49:05;;;;;;;5.07;4.30;;;;;;;8.21;100.00;153468.81;5043825;28;20828;-86
2023/03/22 04:51:36;;;;;;;4.73;4.10;;;;;;;8.13;100.00;153448.13;5017442;28;20440;-86
2023/03/22 04:54:22;;;;;;;5.13;4.13;;;;;;;8.16;100.00;153455.91;5041413;28;20439;-86
2023/03/22 04:56:49;;;;;;;4.10;3.57;;;;;;;8.19;100.00;153463.66;5041138;28;20475;-86
2023/03/22 04:59:19;;;;;;;5.80;4.30;;;;;;;8.16;100.00;153455.91;5020026;28;20491;-85
2023/03/22 05:01:47;;;;;;;6.00;4.23;;;;;;;8.13;100.00;153448.13;5032425;28;20509;-86
2023/03/22 05:04:18;;;;;;;5.03;4.53;;;;;;;8.13;100.00;153448.13;5032034;28;20458;-86
2023/03/22 05:06:45;;;;;;;5.00;3.63;;;;;;;8.13;100.00;153448.13;5015552;28;20441;-86
2023/03/22 05:09:19;;;;;;;4.50;3.93;;;;;;;8.11;100.00;153443.00;5015464;28;20463;-86
2023/03/22 05:11:47;;;;;;;5.07;4.30;;;;;;;8.07;100.00;153432.66;5012202;28;20454;-86
2023/03/22 05:14:42;;;;;;;6.23;4.10;;;;;;;8.07;100.00;153431.38;5030852;28;20451;-85
2023/03/22 05:17:11;;;;;;;5.07;4.23;;;;;;;8.03;100.00;153422.31;5032307;28;20456;-86
2023/03/22 05:19:39;;;;;;;5.53;4.57;;;;;;;7.99;100.00;153413.25;5032946;28;20455;-86
2023/03/22 05:22:07;;;;;;;5.67;3.93;;;;;;;8.02;100.00;153418.44;5027428;28;21314;-85
2023/03/22 05:24:44;;;;;;;4.30;3.90;;;;;;;7.97;100.00;153408.09;5021904;28;20724;-85
2023/03/22 05:27:15;;;;;;;4.30;3.90;;;;;;;8.00;100.00;153414.53;5019663;28;20981;-86
2023/03/22 05:29:45;;;;;;;6.40;4.30;;;;;;;7.99;100.00;153412.00;5016282;28;20472;-85
2023/03/22 05:32:24;;;;;;;4.27;3.87;;;;;;;7.93;100.00;153397.78;5024323;28;20519;-86
2023/03/22 05:34:53;;;;;;;4.27;3.73;;;;;;;7.92;100.00;153395.19;5028547;28;20449;-86
2023/03/22 05:37:34;;;;;;;5.07;3.80;;;;;;;7.91;100.00;153391.31;5035537;28;20473;-85
2023/03/22 05:40:01;;;;;;;4.50;4.03;;;;;;;7.91;100.00;153391.31;5032339;28;20767;-86
2023/03/22 05:42:41;;;;;;;4.20;3.50;;;;;;;7.92;100.00;153393.88;5023063;28;20446;-85
2023/03/22 05:45:23;;;;;;;4.63;4.23;;;;;;;7.98;100.00;153409.41;5037056;28;20530;-85
2023/03/22 05:48:01;;;;;;;5.10;3.50;;;;;;;7.96;100.00;153404.22;5001111;28;20448;-85
2023/03/22 05:50:29;;;;;;;4.80;4.33;;;;;;;8.00;100.00;153414.53;5015762;28;20491;-86
2023/03/22 05:52:56;;;;;;;4.30;3.90;;;;;;;8.03;100.00;153421.00;5014946;28;20476;-85
2023/03/22 05:55:26;;;;;;;7.40;4.27;;;;;;;8.03;100.00;153421.00;5013434;28;20463;-85
2023/03/22 05:57:58;;;;;;;4.43;3.77;;;;;;;8.05;100.00;153427.47;4996214;28;20871;-85
2023/03/22 06:00:30;;;;;;;5.10;3.83;;;;;;;8.07;100.00;153431.38;4997352;28;20460;-86
2023/03/22 06:03:17;;;;;;;6.20;4.17;;;;;;;8.08;100.00;153435.22;5005424;28;20442;-86
2023/03/22 06:05:50;;;;;;;6.03;4.90;;;;;;;8.10;100.00;153440.38;5000325;28;20487;-85
2023/03/22 06:08:19;;;;;;;8.10;5.07;;;;;;;8.17;100.00;153457.19;4995126;28;20473;-85
2023/03/22 06:10:49;;;;;;;5.17;4.67;;;;;;;8.16;100.00;153454.59;4990975;28;20452;-85
2023/03/22 06:13:15;;;;;;;6.10;4.40;;;;;;;8.18;100.00;153461.06;5011110;28;20463;-86
2023/03/22 06:15:44;;;;;;;5.40;4.53;;;;;;;8.22;100.00;153471.44;5011839;28;20461;-86
2023/03/22 06:18:17;;;;;;;5.93;4.87;;;;;;;8.27;100.00;153484.41;4994875;28;20475;-86
2023/03/22 06:20:48;;;;;;;4.97;4.30;;;;;;;8.30;100.00;153492.16;5011200;28;20522;-86
2023/03/22 06:23:20;;;;;;;4.50;4.10;;;;;;;8.35;100.00;153503.78;5012175;28;20952;-85
2023/03/22 06:25:47;;;;;;;6.30;4.70;;;;;;;8.37;100.00;153510.22;4988437;28;20453;-86
2023/03/22 06:28:15;;;;;;;6.63;5.40;;;;;;;8.49;100.00;153541.28;5008354;28;20455;-85
2023/03/22 06:30:50;;;;;;;6.50;5.80;;;;;;;8.70;100.00;153592.97;5002873;28;20436;-86
2023/03/22 06:33:44;;;;;;;6.57;5.57;;;;;;;9.03;100.00;153678.28;5024092;28;20487;-85
2023/03/22 06:36:23;;;;;;;5.87;5.27;;;;;;;9.37;100.00;153764.97;4987858;28;20456;-85
2023/03/22 06:39:04;;;;;;;6.63;4.87;;;;;;;9.74;98.65;153860.72;4996035;28;20540;-86
2023/03/22 06:41:31;;;;;;;5.80;5.20;;;;;;;10.10;98.18;153952.56;4992834;28;20629;-86
2023/03/22 06:43:57;;;;;;;6.17;5.50;;;;;;;10.36;96.29;154021.22;5000998;28;20536;-86
2023/03/22 06:46:41;;;;;;;7.13;5.87;;;;;;;10.65;93.65;154095.03;5008210;28;20643;-86
2023/03/22 06:49:32;;;;;;;4.60;4.20;;;;;;;10.92;92.24;154164.97;5023215;28;20475;-86
2023/03/22 06:51:59;;;;;;;3.80;3.50;;;;;;;11.17;91.02;154228.44;5001966;28;20883;-86
2023/03/22 06:54:26;;;;;;;6.87;4.37;;;;;;;11.40;90.78;154286.72;4989167;28;20453;-86
2023/03/22 06:56:53;;;;;;;4.57;3.80;;;;;;;11.56;87.93;154328.19;5009088;28;20535;-85
2023/03/22 06:59:21;;;;;;;4.37;3.97;;;;;;;11.76;87.81;154380.06;4986040;28;20523;-85
2023/03/22 07:01:49;;;;;;;4.63;3.80;;;;;;;11.94;87.13;154426.72;5009620;28;20457;-86
2023/03/22 07:04:16;;;;;;;3.53;3.23;;;;;;;12.12;85.02;154472.13;4993070;28;20452;-86
2023/03/22 07:06:46;;;;;;;3.90;3.50;;;;;;;12.30;84.24;154518.78;5017176;28;20457;-86
2023/03/22 07:09:12;;;;;;;4.90;3.20;;;;;;;12.42;79.86;154549.88;5008753;28;20480;-86
2023/03/22 07:11:39;;;;;;;5.00;3.30;;;;;;;12.62;80.64;154600.47;4991373;28;20463;-86
2023/03/22 07:14:08;;;;;;;4.27;3.87;;;;;;;12.85;80.41;154660.13;4998546;28;20854;-86
2023/03/22 07:17:05;;;;;;;3.77;3.37;;;;;;;13.07;78.43;154715.97;4990326;28;20452;-85
2023/03/22 07:19:33;;;;;;;3.80;3.40;;;;;;;13.33;79.49;154784.72;5010691;28;20444;-86
2023/03/22 07:22:06;;;;;;;3.07;2.77;;;;;;;13.58;76.85;154847.03;5008655;28;20471;-85
2023/03/22 07:24:33;;;;;;;3.40;2.90;;;;;;;13.80;74.05;154904.09;5007409;28;21107;-85
2023/03/22 07:27:02;;;;;;;4.00;3.60;;;;;;;13.90;71.79;154930.06;5010548;28;20456;-86
2023/03/22 07:29:29;;;;;;;2.77;2.40;;;;;;;14.04;72.32;154966.41;5005068;28;20474;-85
2023/03/22 07:31:56;;;;;;;3.50;2.43;;;;;;;14.17;73.84;154998.88;5000266;28;20535;-85
2023/03/22 07:34:28;;;;;;;2.77;2.37;;;;;;;14.29;71.61;155031.38;4993391;28;20472;-85
2023/03/22 07:37:02;;;;;;;2.60;2.40;;;;;;;14.46;68.68;155075.53;4996989;28;20453;-86
2023/03/22 07:39:30;;;;;;;3.17;2.30;;;;;;;14.62;68.74;155117.09;4994126;28;20452;-86
2023/03/22 07:41:57;;;;;;;2.27;2.07;;;;;;;14.70;67.96;155135.28;4975360;28;20464;-86
2023/03/22 07:44:24;;;;;;;2.87;2.33;;;;;;;14.77;65.79;155153.50;4981876;28;20483;-86
2023/03/22 07:47:06;;;;;;;2.40;2.20;;;;;;;14.91;66.82;155191.16;4982528;28;20446;-85
2023/03/22 07:50:02;;;;;;;3.70;2.60;;;;;;;15.11;65.86;155243.16;4983696;28;20468;-86
2023/03/22 07:52:32;;;;;;;4.43;2.50;;;;;;;15.27;65.80;155282.13;4983424;28;20562;-86
2023/03/22 07:54:58;;;;;;;2.90;2.40;;;;;;;15.43;64.04;155325.00;4997957;28;20484;-85
2023/03/22 07:57:25;;;;;;;3.60;2.40;;;;;;;15.61;63.05;155371.84;4999006;28;20458;-86
2023/03/22 07:59:59;;;;;;;2.80;2.17;;;;;;;15.72;62.63;155399.16;4984141;28;20454;-86
2023/03/22 08:02:44;;;;;;;2.50;2.20;;;;;;;15.86;63.07;155435.50;5001295;28;20512;-86
2023/03/22 08:05:18;;;;;;;3.33;2.20;;;;;;;15.96;63.63;155460.25;5001138;28;20543;-85
2023/03/22 08:07:51;;;;;;;3.07;2.50;;;;;;;16.10;62.89;155496.63;4991586;28;20829;-86
2023/03/22 08:10:18;;;;;;;3.20;2.13;;;;;;;16.28;60.30;155543.47;4999764;28;21063;-86
2023/03/22 08:12:45;;;;;;;2.37;2.17;;;;;;;16.28;57.00;155543.47;4969486;28;20463;-86
2023/03/22 08:15:21;;;;;;;2.40;2.20;;;;;;;16.30;55.79;155548.66;4977588;28;20863;-86
2023/03/22 08:17:48;;;;;;;2.83;2.10;;;;;;;16.29;58.91;155547.34;5018478;28;20459;-86
2023/03/22 08:20:26;;;;;;;2.07;1.73;;;;;;;16.35;62.06;155562.97;4982754;28;20449;-86
2023/03/22 08:22:54;;;;;;;2.27;1.97;;;;;;;16.33;59.98;155556.47;4985320;28;20466;-86
2023/03/22 08:25:28;;;;;;;2.80;1.90;;;;;;;16.35;60.42;155562.97;4979164;28;20449;-86
2023/03/22 08:28:03;;;;;;;3.93;2.10;;;;;;;16.43;57.48;155582.47;4980712;28;20534;-86
2023/03/22 08:30:30;;;;;;;2.43;1.63;;;;;;;16.54;58.91;155611.16;4998488;28;20499;-86
2023/03/22 08:32:56;;;;;;;3.87;2.30;;;;;;;16.48;58.80;155595.47;4981801;28;20939;-86
2023/03/22 08:35:25;;;;;;;2.13;1.93;;;;;;;16.47;59.67;155591.59;4973614;28;21290;-86
2023/03/22 08:37:53;;;;;;;2.47;1.60;;;;;;;16.41;55.63;155577.28;4988207;28;20933;-86
2023/03/22 08:40:22;;;;;;;1.70;1.47;;;;;;;16.37;56.71;155566.84;4983390;28;20450;-86
2023/03/22 08:42:53;;;;;;;2.60;1.70;;;;;;;16.44;63.02;155585.09;4971962;28;20479;-86
2023/03/22 08:45:23;;;;;;;3.20;1.90;;;;;;;16.37;58.05;155566.84;4988033;28;20459;-86
2023/03/22 08:47:58;;;;;;;2.63;1.57;;;;;;;16.22;60.66;155529.16;4988781;28;20474;-86
2023/03/22 08:50:26;;;;;;;2.57;1.90;;;;;;;16.10;61.47;155496.63;5009295;28;20483;-86
2023/03/22 08:53:09;;;;;;;2.47;1.70;;;;;;;16.01;56.87;155473.25;4977910;28;20463;-86
2023/03/22 08:55:38;;;;;;;2.20;1.53;;;;;;;15.99;57.04;155468.06;4993412;28;20456;-86
2023/03/22 08:58:11;;;;;;;1.90;1.60;;;;;;;15.98;62.51;155466.75;5011452;28;20451;-86
2023/03/22 09:00:51;;;;;;;2.23;1.43;;;;;;;15.90;63.10;155444.63;4993734;28;20547;-86
2023/03/22 09:03:40;;;;;;;1.87;1.57;;;;;;;15.87;58.21;155438.13;4977588;28;20972;-86
2023/03/22 09:06:10;;;;;;;2.13;1.40;;;;;;;15.89;60.66;155442.00;4993601;28;20459;-86
2023/03/22 09:08:40;;;;;;;2.37;1.73;;;;;;;15.89;60.05;155442.00;4989763;28;21358;-86
2023/03/22 09:11:13;;;;;;;2.60;1.70;;;;;;;15.88;59.20;155439.44;4988334;28;20474;-87
2023/03/22 09:13:42;;;;;;;2.63;1.50;;;;;;;15.96;59.07;155460.25;4976304;28;20521;-86
2023/03/22 09:16:09;;;;;;;2.37;1.60;;;;;;;15.90;64.92;155444.63;4976532;28;20507;-86
2023/03/22 09:18:36;;;;;;;2.63;1.57;;;;;;;15.79;66.38;155418.63;4973487;28;20466;-86
2023/03/22 09:21:11;;;;;;;2.70;1.50;;;;;;;15.77;63.95;155412.13;4990661;28;20552;-86
2023/03/22 09:24:02;;;;;;;1.90;1.30;;;;;;;15.81;63.35;155423.81;4974588;28;20459;-86
2023/03/22 09:26:38;;;;;;;1.93;1.30;;;;;;;15.78;65.06;155416.03;4975998;28;20977;-86
2023/03/22 09:29:06;;;;;;;2.43;1.80;;;;;;;15.71;61.51;155397.84;4988968;28;20484;-86
2023/03/22 09:31:34;;;;;;;1.63;1.33;;;;;;;15.80;62.88;155421.25;4990709;28;20464;-86
2023/03/22 09:34:10;;;;;;;2.80;1.60;;;;;;;15.83;66.10;155429.03;5010907;28;20449;-86
2023/03/22 09:36:39;;;;;;;3.73;2.00;;;;;;;15.85;61.89;155432.94;5021769;28;20819;-86
2023/03/22 09:39:08;;;;;;;2.30;1.50;;;;;;;15.84;63.19;155431.63;5021407;28;20811;-87
2023/03/22 09:41:38;;;;;;;7.37;2.60;;;;;;;15.80;60.13;155421.25;5006569;28;20591;-86
2023/03/22 09:44:08;;;;;;;2.43;1.20;;;;;;;15.87;67.26;155438.13;5023645;28;20449;-87
2023/03/22 09:46:39;;;;;;;2.30;1.60;;;;;;;15.81;64.57;155423.81;5020198;28;20471;-86
2023/03/22 09:49:10;;;;;;;1.93;1.47;;;;;;;15.88;60.76;155439.44;5039194;28;20451;-87
2023/03/22 09:51:41;;;;;;;3.00;1.77;;;;;;;15.96;61.82;155461.56;5039926;28;20474;-87
2023/03/22 09:54:13;;;;;;;2.80;1.50;;;;;;;16.04;59.69;155482.38;5036221;28;20451;-87
2023/03/22 09:56:40;;;;;;;3.83;1.30;;;;;;;16.08;65.94;155491.44;5038238;28;20532;-87
2023/03/22 09:59:13;;;;;;;3.93;2.57;;;;;;;15.98;63.90;155466.75;5022495;28;20806;-87
2023/03/22 10:01:45;;;;;;;2.53;1.70;;;;;;;15.96;61.83;155460.25;5013064;28;20451;-87
2023/03/22 10:04:25;;;;;;;3.03;1.80;;;;;;;15.90;63.14;155444.63;5018899;28;20487;-87
2023/03/22 10:07:01;;;;;;;2.03;1.53;;;;;;;15.89;67.04;155442.00;5038454;28;20450;-87
2023/03/22 10:09:30;;;;;;;1.40;1.30;;;;;;;15.87;63.52;155436.81;4989174;28;20501;-87
2023/03/22 10:12:03;;;;;;;1.50;1.30;;;;;;;15.91;68.37;155447.25;5005696;28;20444;-87
2023/03/22 10:14:34;;;;;;;2.23;1.33;;;;;;;15.92;64.88;155451.13;5040892;28;20452;-87
2023/03/22 10:17:04;;;;;;;2.40;1.60;;;;;;;15.89;66.92;155442.00;5023319;28;20498;-87
2023/03/22 10:19:33;;;;;;;1.53;1.40;;;;;;;15.82;63.57;155426.44;5022013;28;20456;-87
2023/03/22 10:22:03;;;;;;;1.87;1.50;;;;;;;15.78;67.07;155416.03;5019332;28;20471;-87
2023/03/22 10:24:33;;;;;;;5.50;2.10;;;;;;;15.82;72.29;155425.13;5039639;28;20466;-87
2023/03/22 10:27:00;;;;;;;2.73;1.60;;;;;;;15.84;66.96;155430.31;5021790;28;20467;-87
2023/03/22 10:29:30;;;;;;;2.30;1.37;;;;;;;15.75;62.95;155408.22;5027807;28;20455;-87
2023/03/22 10:32:09;;;;;;;1.87;1.30;;;;;;;15.83;71.45;155429.03;5020044;28;20527;-87
2023/03/22 10:34:35;;;;;;;2.83;1.47;;;;;;;15.67;67.27;155387.41;4995807;28;20462;-87
2023/03/22 10:37:05;;;;;;;1.70;1.60;;;;;;;15.72;65.44;155400.47;5023732;28;20538;-87
2023/03/22 10:39:34;;;;;;;2.67;1.30;;;;;;;15.77;64.11;155413.47;5007287;28;20491;-87
2023/03/22 10:42:03;;;;;;;2.73;1.70;;;;;;;15.84;67.24;155431.63;5010797;28;20450;-87
2023/03/22 10:44:37;;;;;;;1.53;1.30;;;;;;;15.80;66.25;155421.25;5009794;28;20477;-87
2023/03/22 10:47:06;;;;;;;1.20;1.00;;;;;;;15.81;70.07;155423.81;5008661;28;20459;-87
2023/03/22 10:49:36;;;;;;;1.50;1.20;;;;;;;15.92;66.06;155451.13;5027604;28;20540;-87
2023/03/22 10:52:16;;;;;;;2.80;1.57;;;;;;;15.86;65.42;155435.50;5011161;28;20507;-87
2023/03/22 10:54:43;;;;;;;2.20;1.63;;;;;;;15.92;65.73;155451.13;5002042;28;20541;-87
2023/03/22 10:57:10;;;;;;;1.50;1.30;;;;;;;15.99;71.77;155468.06;5026969;28;20451;-87
2023/03/22 10:59:47;;;;;;;1.97;1.20;;;;;;;15.88;61.77;155439.44;5012296;28;20470;-87
2023/03/22 11:02:22;;;;;;;1.57;1.27;;;;;;;15.92;62.98;155449.81;5008641;28;20871;-87
2023/03/22 11:04:51;;;;;;;3.13;1.40;;;;;;;15.91;62.23;155447.25;5010897;28;20458;-88
2023/03/22 11:07:30;;;;;;;1.40;0.93;;;;;;;16.00;64.85;155470.63;5010114;28;20515;-87
2023/03/22 11:10:13;;;;;;;1.37;1.00;;;;;;;16.07;68.87;155490.13;5010103;28;20573;-87
2023/03/22 11:12:42;;;;;;;1.47;0.93;;;;;;;16.13;60.85;155504.44;5010478;28;20544;-87
2023/03/22 11:15:19;;;;;;;1.33;1.10;;;;;;;16.18;63.01;155517.44;5009323;28;20816;-87
2023/03/22 11:17:46;;;;;;;1.67;1.00;;;;;;;16.23;65.00;155530.47;5009235;28;20483;-87
2023/03/22 11:20:15;;;;;;;2.40;1.40;;;;;;;16.26;62.53;155538.25;5026938;28;20868;-87
2023/03/22 11:22:44;;;;;;;2.20;0.97;;;;;;;16.26;63.52;155538.25;5012013;28;20510;-87
2023/03/22 11:25:15;;;;;;;1.97;0.97;;;;;;;16.22;66.47;155529.16;5019366;28;20455;-86
2023/03/22 11:27:50;;;;;;;1.30;0.73;;;;;;;16.21;67.08;155525.25;5008994;28;20450;-86
2023/03/22 11:30:20;;;;;;;3.77;1.20;;;;;;;16.19;62.91;155521.38;5010422;28;20677;-87
2023/03/22 11:32:48;;;;;;;2.33;0.90;;;;;;;16.20;67.47;155522.66;5024930;28;20578;-87
2023/03/22 11:35:17;;;;;;;1.90;1.10;;;;;;;16.15;64.02;155509.66;5009711;28;20474;-86
2023/03/22 11:37:47;;;;;;;2.47;0.87;;;;;;;16.20;65.13;155522.66;5026600;28;20448;-87
2023/03/22 11:40:17;;;;;;;2.60;1.13;;;;;;;16.26;65.81;155539.56;5010216;28;20552;-87
2023/03/22 11:42:44;;;;;;;1.03;0.80;;;;;;;16.33;65.10;155556.47;5008968;28;20551;-87
2023/03/22 11:45:22;;;;;;;1.33;0.90;;;;;;;16.39;68.36;155572.06;5000293;28;20452;-86
2023/03/22 11:47:49;;;;;;;1.50;1.00;;;;;;;16.43;69.22;155583.78;5010781;28;20699;-86
2023/03/22 11:50:26;;;;;;;1.00;0.80;;;;;;;16.49;69.47;155598.09;5010936;28;20478;-86